sensor_id;sensor_type;location;lat;lon;timestamp;P1;durP1;ratioP1;P2;durP2;ratioP2
35675;SDS011;21790;42.668;23.298;2023-07-13T00:18:27;12.93;;;5.17;;
35675;SDS011;21790;42.668;23.298;2023-07-13T00:31:40;10.93;;;5.57;;
35675;SDS011;21790;42.668;23.298;2023-07-13T00:37:31;16.52;;;5.07;;
35675;SDS011;21790;42.668;23.298;2023-07-13T01:02:40;8.57;;;4.93;;
35675;SDS011;21790;42.668;23.298;2023-07-13T01:21:04;7.88;;;4.22;;
35675;SDS011;21790;42.668;23.298;2023-07-13T01:26:52;8.77;;;4.57;;
35675;SDS011;21790;42.668;23.298;2023-07-13T01:33:18;8.20;;;4.85;;
35675;SDS011;21790;42.668;23.298;2023-07-13T01:35:53;8.50;;;5.10;;
35675;SDS011;21790;42.668;23.298;2023-07-13T01:41:58;10.25;;;5.50;;
35675;SDS011;21790;42.668;23.298;2023-07-13T01:50:57;10.05;;;5.38;;
35675;SDS011;21790;42.668;23.298;2023-07-13T02:03:00;8.32;;;5.03;;
35675;SDS011;21790;42.668;23.298;2023-07-13T02:08:48;8.13;;;5.07;;
35675;SDS011;21790;42.668;23.298;2023-07-13T02:14:39;8.18;;;5.20;;
35675;SDS011;21790;42.668;23.298;2023-07-13T02:24:04;11.27;;;6.35;;
35675;SDS011;21790;42.668;23.298;2023-07-13T02:30:34;8.25;;;5.00;;
35675;SDS011;21790;42.668;23.298;2023-07-13T02:33:14;9.20;;;5.57;;
35675;SDS011;21790;42.668;23.298;2023-07-13T02:39:44;7.80;;;4.63;;
35675;SDS011;21790;42.668;23.298;2023-07-13T02:51:57;9.88;;;6.03;;
35675;SDS011;21790;42.668;23.298;2023-07-13T02:57:58;11.82;;;5.63;;
35675;SDS011;21790;42.668;23.298;2023-07-13T03:04:02;11.27;;;5.32;;
35675;SDS011;21790;42.668;23.298;2023-07-13T03:10:07;13.18;;;6.43;;
35675;SDS011;21790;42.668;23.298;2023-07-13T04:52:15;19.90;;;9.60;;
35675;SDS011;21790;42.668;23.298;2023-07-13T04:58:02;16.13;;;9.73;;
35675;SDS011;21790;42.668;23.298;2023-07-13T05:09:19;13.63;;;9.27;;
35675;SDS011;21790;42.668;23.298;2023-07-13T05:18:09;13.53;;;8.70;;
35675;SDS011;21790;42.668;23.298;2023-07-13T05:24:26;17.70;;;9.35;;
35675;SDS011;21790;42.668;23.298;2023-07-13T05:29:52;15.68;;;8.50;;
35675;SDS011;21790;42.668;23.298;2023-07-13T05:32:27;21.10;;;10.20;;
35675;SDS011;21790;42.668;23.298;2023-07-13T05:34:59;16.98;;;10.45;;
35675;SDS011;21790;42.668;23.298;2023-07-13T05:40:36;18.00;;;10.60;;
35675;SDS011;21790;42.668;23.298;2023-07-13T05:43:10;17.98;;;10.48;;
35675;SDS011;21790;42.668;23.298;2023-07-13T05:49:44;24.45;;;12.00;;
35675;SDS011;21790;42.668;23.298;2023-07-13T05:55:34;19.08;;;11.88;;
35675;SDS011;21790;42.668;23.298;2023-07-13T10:21:36;13.27;;;5.55;;
35675;SDS011;21790;42.668;23.298;2023-07-13T10:24:27;10.48;;;5.15;;
35675;SDS011;21790;42.668;23.298;2023-07-13T10:27:19;8.10;;;4.57;;
35675;SDS011;21790;42.668;23.298;2023-07-13T10:30:32;13.75;;;5.93;;
35675;SDS011;21790;42.668;23.298;2023-07-13T10:33:02;8.60;;;4.22;;
35675;SDS011;21790;42.668;23.298;2023-07-13T10:35:33;10.43;;;4.47;;
35675;SDS011;21790;42.668;23.298;2023-07-13T10:38:01;11.77;;;5.00;;
35675;SDS011;21790;42.668;23.298;2023-07-13T10:40:48;9.73;;;4.55;;
35675;SDS011;21790;42.668;23.298;2023-07-13T10:43:33;7.72;;;5.03;;
35675;SDS011;21790;42.668;23.298;2023-07-13T10:46:22;12.15;;;4.72;;
35675;SDS011;21790;42.668;23.298;2023-07-13T10:48:55;10.55;;;4.88;;
35675;SDS011;21790;42.668;23.298;2023-07-13T10:51:25;11.77;;;5.28;;
35675;SDS011;21790;42.668;23.298;2023-07-13T10:57:07;9.32;;;5.15;;
35675;SDS011;21790;42.668;23.298;2023-07-13T10:59:33;10.25;;;4.80;;
35675;SDS011;21790;42.668;23.298;2023-07-13T11:02:10;9.18;;;4.97;;
35675;SDS011;21790;42.668;23.298;2023-07-13T11:04:47;9.88;;;4.50;;
35675;SDS011;21790;42.668;23.298;2023-07-13T11:07:21;12.73;;;4.90;;
35675;SDS011;21790;42.668;23.298;2023-07-13T11:09:50;8.13;;;4.18;;
35675;SDS011;21790;42.668;23.298;2023-07-13T11:17:36;12.68;;;5.10;;
35675;SDS011;21790;42.668;23.298;2023-07-13T11:22:43;8.18;;;4.97;;
35675;SDS011;21790;42.668;23.298;2023-07-13T11:35:53;8.18;;;4.80;;
35675;SDS011;21790;42.668;23.298;2023-07-13T11:41:05;13.77;;;5.60;;
35675;SDS011;21790;42.668;23.298;2023-07-13T11:43:36;12.07;;;4.70;;
35675;SDS011;21790;42.668;23.298;2023-07-13T11:46:13;20.40;;;5.35;;
35675;SDS011;21790;42.668;23.298;2023-07-13T11:48:41;12.27;;;4.93;;
35675;SDS011;21790;42.668;23.298;2023-07-13T11:51:13;11.35;;;4.70;;
35675;SDS011;21790;42.668;23.298;2023-07-13T11:53:53;16.63;;;4.72;;
35675;SDS011;21790;42.668;23.298;2023-07-13T11:56:20;14.85;;;4.90;;
35675;SDS011;21790;42.668;23.298;2023-07-13T11:58:56;13.48;;;5.03;;
35675;SDS011;21790;42.668;23.298;2023-07-13T12:01:31;22.17;;;5.20;;
35675;SDS011;21790;42.668;23.298;2023-07-13T12:04:02;13.15;;;5.05;;
35675;SDS011;21790;42.668;23.298;2023-07-13T12:06:30;17.05;;;4.80;;
35675;SDS011;21790;42.668;23.298;2023-07-13T12:09:03;12.65;;;4.25;;
35675;SDS011;21790;42.668;23.298;2023-07-13T12:11:38;6.50;;;4.35;;
35675;SDS011;21790;42.668;23.298;2023-07-13T12:14:10;10.65;;;4.20;;
35675;SDS011;21790;42.668;23.298;2023-07-13T12:16:40;9.02;;;4.32;;
35675;SDS011;21790;42.668;23.298;2023-07-13T12:19:20;9.45;;;3.97;;
35675;SDS011;21790;42.668;23.298;2023-07-13T12:21:50;15.38;;;4.40;;
35675;SDS011;21790;42.668;23.298;2023-07-13T12:24:19;10.25;;;4.20;;
35675;SDS011;21790;42.668;23.298;2023-07-13T12:26:52;8.45;;;4.40;;
35675;SDS011;21790;42.668;23.298;2023-07-13T12:29:19;17.65;;;4.95;;
35675;SDS011;21790;42.668;23.298;2023-07-13T12:31:46;9.38;;;4.40;;
35675;SDS011;21790;42.668;23.298;2023-07-13T12:34:14;13.05;;;4.85;;
35675;SDS011;21790;42.668;23.298;2023-07-13T12:45:01;12.93;;;4.57;;
35675;SDS011;21790;42.668;23.298;2023-07-13T12:47:47;11.68;;;5.32;;
35675;SDS011;21790;42.668;23.298;2023-07-13T12:50:20;12.13;;;4.38;;
35675;SDS011;21790;42.668;23.298;2023-07-13T12:52:56;11.90;;;4.72;;
35675;SDS011;21790;42.668;23.298;2023-07-13T12:55:29;22.83;;;5.30;;
35675;SDS011;21790;42.668;23.298;2023-07-13T12:57:59;10.52;;;4.97;;
35675;SDS011;21790;42.668;23.298;2023-07-13T14:20:13;14.68;;;4.70;;
35675;SDS011;21790;42.668;23.298;2023-07-13T14:22:42;11.13;;;4.15;;
35675;SDS011;21790;42.668;23.298;2023-07-13T14:25:14;10.10;;;4.05;;
35675;SDS011;21790;42.668;23.298;2023-07-13T14:27:41;9.23;;;4.78;;
35675;SDS011;21790;42.668;23.298;2023-07-13T14:30:15;15.05;;;4.63;;
35675;SDS011;21790;42.668;23.298;2023-07-13T14:32:45;12.27;;;4.47;;
35675;SDS011;21790;42.668;23.298;2023-07-13T14:35:17;9.68;;;4.55;;
35675;SDS011;21790;42.668;23.298;2023-07-13T14:37:52;12.85;;;5.00;;
35675;SDS011;21790;42.668;23.298;2023-07-13T14:43:40;12.65;;;4.38;;
35675;SDS011;21790;42.668;23.298;2023-07-13T14:49:32;10.50;;;4.78;;
35675;SDS011;21790;42.668;23.298;2023-07-13T14:52:16;14.93;;;4.85;;
35675;SDS011;21790;42.668;23.298;2023-07-13T14:54:47;12.75;;;4.68;;
35675;SDS011;21790;42.668;23.298;2023-07-13T14:57:15;10.27;;;4.47;;
35675;SDS011;21790;42.668;23.298;2023-07-13T14:59:42;11.23;;;4.95;;
35675;SDS011;21790;42.668;23.298;2023-07-13T15:02:17;11.45;;;5.00;;
35675;SDS011;21790;42.668;23.298;2023-07-13T15:04:54;14.07;;;4.80;;
35675;SDS011;21790;42.668;23.298;2023-07-13T15:07:21;10.45;;;5.10;;
35675;SDS011;21790;42.668;23.298;2023-07-13T15:09:49;10.10;;;6.35;;
35675;SDS011;21790;42.668;23.298;2023-07-13T15:12:17;11.85;;;5.57;;
35675;SDS011;21790;42.668;23.298;2023-07-13T15:14:45;14.40;;;4.70;;
35675;SDS011;21790;42.668;23.298;2023-07-13T15:17:26;13.55;;;4.50;;
35675;SDS011;21790;42.668;23.298;2023-07-13T15:20:00;6.25;;;4.22;;
35675;SDS011;21790;42.668;23.298;2023-07-13T15:22:27;9.38;;;4.80;;
35675;SDS011;21790;42.668;23.298;2023-07-13T15:24:53;8.88;;;4.47;;
35675;SDS011;21790;42.668;23.298;2023-07-13T15:27:23;17.90;;;5.30;;
35675;SDS011;21790;42.668;23.298;2023-07-13T15:32:28;10.32;;;3.90;;
35675;SDS011;21790;42.668;23.298;2023-07-13T15:37:58;11.38;;;4.40;;
35675;SDS011;21790;42.668;23.298;2023-07-13T15:40:24;13.85;;;4.78;;
35675;SDS011;21790;42.668;23.298;2023-07-13T15:42:49;11.65;;;4.55;;
35675;SDS011;21790;42.668;23.298;2023-07-13T15:45:16;8.65;;;4.15;;
35675;SDS011;21790;42.668;23.298;2023-07-13T15:47:43;12.25;;;4.60;;
35675;SDS011;21790;42.668;23.298;2023-07-13T15:50:43;11.18;;;4.07;;
35675;SDS011;21790;42.668;23.298;2023-07-13T15:53:08;10.55;;;5.05;;
35675;SDS011;21790;42.668;23.298;2023-07-13T15:55:37;13.07;;;5.00;;
35675;SDS011;21790;42.668;23.298;2023-07-13T15:58:08;11.57;;;4.97;;
35675;SDS011;21790;42.668;23.298;2023-07-13T16:00:36;9.85;;;4.97;;
35675;SDS011;21790;42.668;23.298;2023-07-13T16:03:02;18.80;;;4.95;;
35675;SDS011;21790;42.668;23.298;2023-07-13T16:05:28;11.80;;;5.03;;
35675;SDS011;21790;42.668;23.298;2023-07-13T16:07:54;8.88;;;4.93;;
35675;SDS011;21790;42.668;23.298;2023-07-13T16:10:25;10.35;;;4.78;;
35675;SDS011;21790;42.668;23.298;2023-07-13T16:12:57;13.57;;;5.50;;
35675;SDS011;21790;42.668;23.298;2023-07-13T16:15:23;12.45;;;5.05;;
35675;SDS011;21790;42.668;23.298;2023-07-13T16:17:49;12.52;;;4.68;;
35675;SDS011;21790;42.668;23.298;2023-07-13T16:20:16;13.93;;;4.43;;
35675;SDS011;21790;42.668;23.298;2023-07-13T16:22:46;14.65;;;5.40;;
35675;SDS011;21790;42.668;23.298;2023-07-13T16:25:15;16.13;;;4.25;;
35675;SDS011;21790;42.668;23.298;2023-07-13T16:27:56;12.68;;;4.93;;
35675;SDS011;21790;42.668;23.298;2023-07-13T16:30:27;10.20;;;4.97;;
35675;SDS011;21790;42.668;23.298;2023-07-13T16:32:58;11.77;;;4.60;;
35675;SDS011;21790;42.668;23.298;2023-07-13T16:35:31;11.93;;;4.95;;
35675;SDS011;21790;42.668;23.298;2023-07-13T16:38:01;15.30;;;4.90;;
35675;SDS011;21790;42.668;23.298;2023-07-13T16:40:32;13.23;;;4.47;;
35675;SDS011;21790;42.668;23.298;2023-07-13T16:43:00;14.32;;;5.40;;
35675;SDS011;21790;42.668;23.298;2023-07-13T16:45:30;11.75;;;6.20;;
35675;SDS011;21790;42.668;23.298;2023-07-13T16:48:01;13.52;;;4.50;;
35675;SDS011;21790;42.668;23.298;2023-07-13T16:50:31;12.73;;;4.43;;
35675;SDS011;21790;42.668;23.298;2023-07-13T16:52:59;17.13;;;6.18;;
35675;SDS011;21790;42.668;23.298;2023-07-13T16:55:25;9.60;;;4.90;;
35675;SDS011;21790;42.668;23.298;2023-07-13T16:57:55;9.88;;;5.43;;
35675;SDS011;21790;42.668;23.298;2023-07-13T17:00:32;14.02;;;4.97;;
35675;SDS011;21790;42.668;23.298;2023-07-13T17:03:03;8.07;;;4.60;;
35675;SDS011;21790;42.668;23.298;2023-07-13T17:05:35;13.52;;;4.90;;
35675;SDS011;21790;42.668;23.298;2023-07-13T17:08:24;13.63;;;5.15;;
35675;SDS011;21790;42.668;23.298;2023-07-13T17:10:55;10.48;;;4.95;;
35675;SDS011;21790;42.668;23.298;2023-07-13T17:13:22;11.95;;;5.38;;
35675;SDS011;21790;42.668;23.298;2023-07-13T17:15:50;10.60;;;5.40;;
35675;SDS011;21790;42.668;23.298;2023-07-13T17:18:28;16.80;;;4.90;;
35675;SDS011;21790;42.668;23.298;2023-07-13T17:21:06;13.52;;;5.45;;
35675;SDS011;21790;42.668;23.298;2023-07-13T17:23:40;13.15;;;5.32;;
35675;SDS011;21790;42.668;23.298;2023-07-13T17:29:28;17.10;;;5.60;;
35675;SDS011;21790;42.668;23.298;2023-07-13T17:32:04;12.32;;;4.70;;
35675;SDS011;21790;42.668;23.298;2023-07-13T17:34:36;14.18;;;4.85;;
35675;SDS011;21790;42.668;23.298;2023-07-13T17:37:16;9.10;;;5.25;;
35675;SDS011;21790;42.668;23.298;2023-07-13T17:39:44;10.05;;;4.40;;
35675;SDS011;21790;42.668;23.298;2023-07-13T17:42:12;11.80;;;4.90;;
35675;SDS011;21790;42.668;23.298;2023-07-13T17:47:32;8.40;;;5.07;;
35675;SDS011;21790;42.668;23.298;2023-07-13T17:49:56;13.23;;;5.45;;
35675;SDS011;21790;42.668;23.298;2023-07-13T17:52:22;12.75;;;5.63;;
35675;SDS011;21790;42.668;23.298;2023-07-13T17:54:53;10.55;;;5.18;;
35675;SDS011;21790;42.668;23.298;2023-07-13T18:00:06;11.57;;;5.05;;
35675;SDS011;21790;42.668;23.298;2023-07-13T18:03:04;9.32;;;4.82;;
35675;SDS011;21790;42.668;23.298;2023-07-13T18:05:43;12.50;;;5.20;;
35675;SDS011;21790;42.668;23.298;2023-07-13T18:13:32;15.18;;;6.90;;
35675;SDS011;21790;42.668;23.298;2023-07-13T18:16:12;17.90;;;7.57;;
35675;SDS011;21790;42.668;23.298;2023-07-13T18:18:55;17.02;;;10.43;;
35675;SDS011;21790;42.668;23.298;2023-07-13T18:21:31;17.00;;;8.18;;
35675;SDS011;21790;42.668;23.298;2023-07-13T18:24:03;11.43;;;7.10;;
35675;SDS011;21790;42.668;23.298;2023-07-13T18:26:30;14.80;;;5.93;;
35675;SDS011;21790;42.668;23.298;2023-07-13T18:29:00;14.18;;;5.60;;
35675;SDS011;21790;42.668;23.298;2023-07-13T18:31:33;18.33;;;6.80;;
35675;SDS011;21790;42.668;23.298;2023-07-13T18:34:01;11.82;;;5.40;;
35675;SDS011;21790;42.668;23.298;2023-07-13T18:36:29;15.18;;;6.53;;
35675;SDS011;21790;42.668;23.298;2023-07-13T18:38:57;19.73;;;6.40;;
35675;SDS011;21790;42.668;23.298;2023-07-13T18:41:26;19.98;;;6.38;;
35675;SDS011;21790;42.668;23.298;2023-07-13T18:43:56;15.82;;;6.22;;
35675;SDS011;21790;42.668;23.298;2023-07-13T18:46:31;14.65;;;5.63;;
35675;SDS011;21790;42.668;23.298;2023-07-13T18:49:03;12.02;;;6.32;;
35675;SDS011;21790;42.668;23.298;2023-07-13T18:51:43;11.75;;;6.18;;
35675;SDS011;21790;42.668;23.298;2023-07-13T18:57:13;18.58;;;6.55;;
35675;SDS011;21790;42.668;23.298;2023-07-13T18:59:40;13.30;;;6.20;;
35675;SDS011;21790;42.668;23.298;2023-07-13T19:02:13;14.48;;;6.60;;
35675;SDS011;21790;42.668;23.298;2023-07-13T19:04:45;17.15;;;6.63;;
